createdAt,value
2023-03-11T00:01:12.709Z,0.90
2023-03-11T00:03:41.683Z,0.70
2023-03-11T00:06:10.437Z,0.70
2023-03-11T00:08:41.292Z,0.60
2023-03-11T00:11:10.285Z,0.70
2023-03-11T00:13:40.922Z,0.80
2023-03-11T00:16:09.697Z,0.73
2023-03-11T00:18:38.496Z,0.90
2023-03-11T00:21:07.450Z,0.60
2023-03-11T00:23:36.447Z,0.70
2023-03-11T00:26:06.812Z,0.57
2023-03-11T00:28:35.738Z,0.80
2023-03-11T00:31:05.748Z,0.90
2023-03-11T00:33:34.478Z,0.80
2023-03-11T00:36:03.856Z,0.80
2023-03-11T00:38:32.510Z,0.73
2023-03-11T00:41:02.190Z,0.80
2023-03-11T00:43:34.725Z,0.90
2023-03-11T00:46:04.953Z,1.00
2023-03-11T00:48:33.803Z,1.00
2023-03-11T00:51:02.610Z,1.07
2023-03-11T00:53:31.392Z,1.03
2023-03-11T00:56:01.451Z,1.10
2023-03-11T00:58:30.824Z,1.20
2023-03-11T01:01:00.996Z,1.27
2023-03-11T01:03:31.641Z,1.20
2023-03-11T01:06:00.415Z,1.57
2023-03-11T01:08:29.599Z,1.40
2023-03-11T01:10:58.412Z,1.30
2023-03-11T01:13:29.888Z,1.50
2023-03-11T01:16:01.126Z,1.33
2023-03-11T01:18:29.941Z,1.20
2023-03-11T01:20:58.578Z,1.40
2023-03-11T01:23:27.821Z,1.40
2023-03-11T01:25:56.591Z,1.20
2023-03-11T01:28:28.345Z,1.50
2023-03-11T01:30:57.069Z,1.47
2023-03-11T01:33:27.215Z,1.70
2023-03-11T01:35:56.208Z,1.30
2023-03-11T01:38:28.136Z,1.27
2023-03-11T01:40:56.827Z,1.23
2023-03-11T01:43:51.977Z,1.37
2023-03-11T01:46:26.754Z,1.40
2023-03-11T01:49:00.733Z,1.37
2023-03-11T01:51:38.840Z,1.23
2023-03-11T01:54:14.559Z,1.40
2023-03-11T01:56:44.229Z,1.30
2023-03-11T01:59:19.871Z,1.30
2023-03-11T02:01:58.861Z,1.40
2023-03-11T02:04:30.536Z,1.30
2023-03-11T02:06:59.730Z,1.17
2023-03-11T02:09:28.573Z,1.13
2023-03-11T02:11:58.753Z,1.23
2023-03-11T02:14:30.600Z,1.20
2023-03-11T02:17:01.096Z,1.20
2023-03-11T02:19:53.308Z,1.30
2023-03-11T02:22:23.080Z,1.20
2023-03-11T02:25:05.657Z,1.23
2023-03-11T02:27:41.401Z,1.20
2023-03-11T02:30:14.420Z,1.20
2023-03-11T02:32:48.728Z,1.30
2023-03-11T02:35:19.504Z,1.50
2023-03-11T02:37:51.722Z,1.30
2023-03-11T02:40:50.094Z,1.10
2023-03-11T02:43:29.337Z,1.20
2023-03-11T02:45:58.870Z,1.03
2023-03-11T02:48:30.256Z,1.20
2023-03-11T02:51:00.323Z,1.03
2023-03-11T02:53:36.083Z,0.90
2023-03-11T02:56:05.508Z,0.90
2023-03-11T02:58:37.444Z,0.93
2023-03-11T03:01:06.612Z,0.90
2023-03-11T03:03:36.436Z,1.00
2023-03-11T03:06:05.888Z,1.20
2023-03-11T03:08:34.623Z,0.90
2023-03-11T03:11:03.430Z,1.10
2023-03-11T03:13:32.456Z,1.20
2023-03-11T03:16:03.097Z,1.20
2023-03-11T03:18:31.924Z,1.40
2023-03-11T03:21:00.646Z,1.50
2023-03-11T03:23:35.065Z,1.30
2023-03-11T03:26:04.306Z,1.40
2023-03-11T03:28:34.719Z,1.40
2023-03-11T03:31:11.488Z,1.60
2023-03-11T03:33:42.464Z,1.80
2023-03-11T03:36:15.236Z,1.80
2023-03-11T03:38:47.913Z,2.10
2023-03-11T03:41:17.235Z,2.00
2023-03-11T03:43:46.867Z,2.20
2023-03-11T03:46:17.615Z,2.00
2023-03-11T03:48:49.554Z,2.07
2023-03-11T03:51:19.006Z,2.40
2023-03-11T03:54:08.659Z,2.30
2023-03-11T03:56:37.773Z,2.30
2023-03-11T03:59:06.758Z,2.10
2023-03-11T04:01:42.760Z,2.30
2023-03-11T04:04:11.893Z,2.10
2023-03-11T04:06:40.816Z,2.07
2023-03-11T04:09:11.820Z,2.27
2023-03-11T04:11:40.881Z,2.30
2023-03-11T04:14:10.208Z,2.60
2023-03-11T04:16:46.841Z,2.60
2023-03-11T04:19:17.542Z,3.00
2023-03-11T04:21:46.269Z,2.73
2023-03-11T04:24:15.007Z,2.60
2023-03-11T04:26:44.546Z,2.73
2023-03-11T04:29:17.540Z,2.80
2023-03-11T04:31:52.099Z,3.40
2023-03-11T04:34:21.210Z,3.13
2023-03-11T04:36:53.386Z,3.27
2023-03-11T04:39:24.474Z,3.57
2023-03-11T04:41:53.523Z,3.90
2023-03-11T04:44:25.494Z,4.03
2023-03-11T04:46:55.815Z,3.50
2023-03-11T04:49:24.589Z,4.23
2023-03-11T04:51:54.522Z,3.80
2023-03-11T04:54:25.187Z,4.13
2023-03-11T04:56:53.988Z,4.37
2023-03-11T04:59:23.623Z,4.10
2023-03-11T05:01:55.418Z,4.40
2023-03-11T05:04:24.618Z,4.03
2023-03-11T05:06:53.349Z,4.20
2023-03-11T05:09:25.301Z,3.87
2023-03-11T05:11:54.354Z,4.40
2023-03-11T05:14:24.048Z,4.53
2023-03-11T05:16:56.501Z,3.93
2023-03-11T05:19:35.536Z,4.67
2023-03-11T05:22:26.781Z,4.20
2023-03-11T05:24:55.752Z,4.57
2023-03-11T05:27:24.922Z,4.33
2023-03-11T05:29:57.275Z,4.30
2023-03-11T05:32:30.086Z,4.40
2023-03-11T05:34:59.140Z,4.30
2023-03-11T05:37:28.192Z,4.43
2023-03-11T05:39:58.228Z,4.70
2023-03-11T05:42:27.396Z,5.03
2023-03-11T05:44:57.963Z,5.17
2023-03-11T05:47:28.871Z,5.60
2023-03-11T05:49:58.939Z,5.40
2023-03-11T05:52:27.830Z,5.30
2023-03-11T05:54:56.806Z,6.00
2023-03-11T05:57:28.635Z,6.23
2023-03-11T05:59:58.169Z,6.50
2023-03-11T06:02:28.334Z,6.37
2023-03-11T06:05:00.930Z,5.83
2023-03-11T06:07:30.113Z,6.43
2023-03-11T06:09:58.828Z,6.70
2023-03-11T06:12:27.600Z,6.10
2023-03-11T06:15:12.060Z,6.00
2023-03-11T06:17:44.571Z,5.77
2023-03-11T06:20:15.417Z,5.80
2023-03-11T06:22:46.051Z,5.90
2023-03-11T06:25:15.109Z,5.87
2023-03-11T06:27:50.685Z,5.77
2023-03-11T06:30:20.992Z,5.60
2023-03-11T06:32:59.216Z,4.47
2023-03-11T06:35:28.068Z,6.07
2023-03-11T06:37:57.741Z,8.97
2023-03-11T06:40:26.541Z,8.93
2023-03-11T06:42:55.860Z,8.63
2023-03-11T06:45:27.449Z,8.20
2023-03-11T06:47:56.856Z,7.43
2023-03-11T06:50:27.914Z,7.13
2023-03-11T06:52:59.327Z,7.47
2023-03-11T06:55:33.357Z,7.53
2023-03-11T06:58:02.843Z,6.40
2023-03-11T07:00:31.804Z,13.33
2023-03-11T07:03:02.117Z,8.73
2023-03-11T07:05:32.793Z,8.67
2023-03-11T07:08:07.359Z,10.07
2023-03-11T07:10:36.328Z,12.77
2023-03-11T07:13:05.390Z,10.87
2023-03-11T07:15:34.194Z,10.40
2023-03-11T07:18:03.217Z,8.90
2023-03-11T07:20:33.982Z,7.93
2023-03-11T07:23:02.691Z,7.07
2023-03-11T07:25:31.420Z,7.67
2023-03-11T07:28:04.170Z,8.17
2023-03-11T07:30:34.578Z,7.23
2023-03-11T07:33:03.482Z,8.10
2023-03-11T07:35:33.853Z,7.70
2023-03-11T07:38:03.093Z,7.83
2023-03-11T07:40:32.140Z,8.53
2023-03-11T07:43:01.185Z,8.93
2023-03-11T07:45:30.660Z,8.97
2023-03-11T07:47:59.536Z,8.03
2023-03-11T07:50:28.558Z,8.70
2023-03-11T07:52:58.771Z,8.63
2023-03-11T07:55:27.582Z,8.13
2023-03-11T07:57:56.324Z,7.40
2023-03-11T08:00:33.617Z,7.80
2023-03-11T08:03:03.497Z,7.87
2023-03-11T08:05:35.581Z,7.67
2023-03-11T08:08:06.165Z,8.03
2023-03-11T08:10:37.748Z,8.60
2023-03-11T08:13:07.039Z,8.73
2023-03-11T08:15:36.249Z,7.37
2023-03-11T08:18:05.587Z,7.10
2023-03-11T08:20:34.381Z,7.50
2023-03-11T08:23:04.983Z,8.53
2023-03-11T08:25:41.044Z,8.30
2023-03-11T08:28:10.294Z,8.07
2023-03-11T08:30:42.208Z,8.10
2023-03-11T08:33:13.358Z,8.00
2023-03-11T08:35:42.380Z,7.53
2023-03-11T08:38:12.753Z,8.30
2023-03-11T08:40:41.533Z,8.00
2023-03-11T08:43:13.700Z,7.53
2023-03-11T08:45:43.004Z,7.10
2023-03-11T08:48:14.447Z,6.47
2023-03-11T08:50:54.061Z,6.93
2023-03-11T08:53:25.622Z,6.60
2023-03-11T08:55:55.110Z,7.23
2023-03-11T08:58:24.201Z,7.43
2023-03-11T09:00:54.035Z,6.70
2023-03-11T09:03:22.962Z,6.90
2023-03-11T09:06:00.415Z,6.70
2023-03-11T09:08:31.619Z,6.53
2023-03-11T09:11:00.348Z,7.60
2023-03-11T09:13:29.516Z,6.80
2023-03-11T09:15:58.604Z,7.27
2023-03-11T09:18:29.415Z,7.30
2023-03-11T09:20:59.293Z,7.77
2023-03-11T09:23:33.024Z,7.27
2023-03-11T09:26:01.878Z,6.73
2023-03-11T09:28:30.659Z,7.40
2023-03-11T09:30:59.445Z,6.57
2023-03-11T09:33:28.610Z,6.23
2023-03-11T09:35:59.038Z,6.63
2023-03-11T09:38:29.281Z,6.60
2023-03-11T09:41:06.228Z,6.67
2023-03-11T09:43:55.038Z,6.67
2023-03-11T09:46:55.776Z,6.00
2023-03-11T09:49:42.251Z,6.30
2023-03-11T09:52:14.269Z,6.63
2023-03-11T09:54:48.915Z,6.80
2023-03-11T09:57:23.901Z,7.20
2023-03-11T09:59:53.025Z,7.00
2023-03-11T10:02:26.810Z,8.18
2023-03-11T10:05:02.435Z,7.47
2023-03-11T10:07:40.689Z,7.57
2023-03-11T10:10:15.167Z,7.73
2023-03-11T10:13:01.231Z,8.10
2023-03-11T10:15:48.393Z,7.20
2023-03-11T10:18:36.634Z,9.37
2023-03-11T10:21:23.830Z,8.07
2023-03-11T10:24:16.052Z,11.33
2023-03-11T10:26:52.734Z,9.00
2023-03-11T10:29:28.378Z,11.87
2023-03-11T10:32:07.408Z,9.03
2023-03-11T10:34:43.717Z,7.73
2023-03-11T10:37:18.612Z,7.77
2023-03-11T10:39:49.254Z,7.57
2023-03-11T10:42:26.203Z,7.47
2023-03-11T10:44:56.875Z,7.80
2023-03-11T10:47:27.156Z,7.50
2023-03-11T10:49:55.854Z,7.60
2023-03-11T10:52:24.566Z,6.87
2023-03-11T10:55:04.829Z,7.37
2023-03-11T10:57:39.976Z,7.40
2023-03-11T11:00:17.133Z,7.57
2023-03-11T11:02:58.181Z,7.10
2023-03-11T11:05:33.428Z,7.00
2023-03-11T11:08:10.148Z,5.97
2023-03-11T11:10:49.939Z,6.13
2023-03-11T11:13:23.672Z,6.00
2023-03-11T11:16:01.066Z,5.60
2023-03-11T11:18:35.873Z,5.50
2023-03-11T11:21:08.414Z,5.33
2023-03-11T11:23:44.199Z,5.77
2023-03-11T11:26:24.340Z,5.83
2023-03-11T11:29:14.347Z,5.40
2023-03-11T11:31:45.425Z,5.60
2023-03-11T11:34:38.099Z,5.43
2023-03-11T11:37:12.768Z,5.13
2023-03-11T11:39:51.978Z,5.10
2023-03-11T11:42:21.837Z,5.23
2023-03-11T11:44:59.331Z,6.80
2023-03-11T11:47:35.160Z,5.63
2023-03-11T11:50:15.066Z,6.37
2023-03-11T11:52:52.208Z,6.23
2023-03-11T11:55:25.328Z,5.17
2023-03-11T11:57:54.241Z,5.60
2023-03-11T12:00:31.581Z,6.00
2023-03-11T12:03:36.890Z,6.00
2023-03-11T12:06:19.351Z,5.40
2023-03-11T12:09:05.027Z,5.60
2023-03-11T12:11:44.189Z,5.47
2023-03-11T12:14:22.808Z,5.47
2023-03-11T12:16:59.704Z,5.20
2023-03-11T12:19:44.645Z,5.43
2023-03-11T12:23:10.222Z,5.77
2023-03-11T12:25:46.743Z,5.50
2023-03-11T12:28:32.538Z,5.30
2023-03-11T12:31:09.106Z,5.13
2023-03-11T12:33:43.397Z,5.13
2023-03-11T12:36:29.142Z,6.07
2023-03-11T12:38:58.535Z,6.63
2023-03-11T12:41:37.018Z,6.33
2023-03-11T12:44:24.346Z,6.37
2023-03-11T12:47:27.311Z,6.50
2023-03-11T12:50:36.131Z,6.13
2023-03-11T12:53:05.170Z,5.53
2023-03-11T12:55:37.500Z,5.47
2023-03-11T12:58:54.578Z,5.60
2023-03-11T13:02:05.687Z,5.47
2023-03-11T13:05:00.865Z,6.20
2023-03-11T13:07:49.638Z,5.83
2023-03-11T13:10:43.156Z,5.80
2023-03-11T13:13:41.113Z,5.83
2023-03-11T13:16:39.962Z,5.57
2023-03-11T13:19:50.116Z,5.30
2023-03-11T13:23:21.674Z,4.60
2023-03-11T13:26:23.861Z,4.10
2023-03-11T13:29:48.908Z,5.07
2023-03-11T13:32:41.538Z,4.20
2023-03-11T13:35:31.953Z,4.93
2023-03-11T13:38:33.747Z,4.90
2023-03-11T13:41:14.369Z,4.37
2023-03-11T13:43:49.525Z,4.20
2023-03-11T13:46:31.823Z,4.07
2023-03-11T13:49:11.797Z,4.43
2023-03-11T13:51:46.650Z,4.00
2023-03-11T13:54:41.154Z,4.10
2023-03-11T13:57:28.563Z,3.60
2023-03-11T13:59:59.719Z,4.00
2023-03-11T14:02:30.051Z,4.00
2023-03-11T14:05:05.957Z,3.70
2023-03-11T14:07:38.477Z,3.67
2023-03-11T14:10:33.384Z,3.67
2023-03-11T14:13:18.074Z,4.03
2023-03-11T14:15:55.888Z,4.20
2023-03-11T14:18:35.498Z,3.80
2023-03-11T14:21:07.940Z,3.90
2023-03-11T14:23:43.652Z,5.07
2023-03-11T14:26:20.698Z,5.40
2023-03-11T14:28:54.329Z,4.90
2023-03-11T14:31:33.611Z,4.47
2023-03-11T14:34:14.719Z,3.80
2023-03-11T14:36:45.938Z,4.30
2023-03-11T14:39:30.876Z,4.27
2023-03-11T14:42:26.433Z,3.90
2023-03-11T14:45:06.093Z,3.50
2023-03-11T14:47:42.706Z,3.97
2023-03-11T14:50:20.933Z,4.07
2023-03-11T14:52:55.723Z,4.00
2023-03-11T14:55:31.257Z,4.30
2023-03-11T14:58:08.057Z,4.23
2023-03-11T15:00:43.650Z,4.23
2023-03-11T15:03:29.027Z,4.03
2023-03-11T15:06:03.199Z,4.33
2023-03-11T15:08:37.602Z,4.30
2023-03-11T15:11:24.461Z,5.00
2023-03-11T15:13:55.895Z,4.80
2023-03-11T15:16:36.084Z,4.63
2023-03-11T15:19:24.790Z,5.33
2023-03-11T15:21:56.560Z,5.13
2023-03-11T15:24:29.013Z,5.10
2023-03-11T15:27:02.825Z,5.40
2023-03-11T15:29:36.210Z,5.27
2023-03-11T15:32:28.797Z,4.97
2023-03-11T15:35:15.187Z,4.77
2023-03-11T15:37:45.389Z,5.23
2023-03-11T15:40:35.230Z,5.07
2023-03-11T15:43:26.277Z,4.77
2023-03-11T15:46:00.144Z,5.10
2023-03-11T15:48:31.429Z,5.40
2023-03-11T15:51:02.217Z,4.80
2023-03-11T15:53:32.867Z,5.07
2023-03-11T15:56:13.734Z,5.17
2023-03-11T15:58:43.052Z,4.90
2023-03-11T16:01:13.965Z,5.07
2023-03-11T16:03:42.731Z,5.27
2023-03-11T16:06:11.814Z,5.03
2023-03-11T16:08:40.558Z,4.73
2023-03-11T16:11:13.986Z,5.23
2023-03-11T16:13:43.609Z,5.30
2023-03-11T16:16:18.936Z,5.40
2023-03-11T16:18:48.047Z,5.70
2023-03-11T16:21:21.238Z,5.53
2023-03-11T16:23:52.474Z,5.67
2023-03-11T16:26:24.148Z,5.43
2023-03-11T16:28:53.005Z,5.30
2023-03-11T16:31:25.826Z,5.93
2023-03-11T16:33:54.790Z,5.47
2023-03-11T16:36:23.734Z,5.60
2023-03-11T16:38:52.506Z,5.57
2023-03-11T16:41:22.038Z,5.03
2023-03-11T16:43:50.834Z,5.70
2023-03-11T16:46:19.861Z,6.10
2023-03-11T16:48:50.172Z,6.03
2023-03-11T16:51:18.888Z,6.57
2023-03-11T16:53:47.765Z,6.70
2023-03-11T16:56:18.068Z,7.47
2023-03-11T16:58:48.281Z,6.70
2023-03-11T17:01:19.235Z,5.40
2023-03-11T17:03:50.099Z,5.70
2023-03-11T17:06:20.668Z,7.07
2023-03-11T17:08:51.435Z,10.67
2023-03-11T17:11:22.553Z,8.53
2023-03-11T17:13:52.364Z,7.43
2023-03-11T17:16:21.479Z,8.37
2023-03-11T17:18:53.254Z,23.80
2023-03-11T17:21:22.902Z,9.07
2023-03-11T17:23:54.504Z,6.83
2023-03-11T17:26:23.905Z,10.13
2023-03-11T17:28:52.676Z,6.47
2023-03-11T17:31:22.124Z,5.67
2023-03-11T17:33:52.225Z,6.60
2023-03-11T17:36:21.847Z,7.10
2023-03-11T17:38:56.446Z,6.60
2023-03-11T17:41:25.425Z,5.80
2023-03-11T17:43:54.130Z,6.90
2023-03-11T17:46:23.744Z,6.27
2023-03-11T17:48:54.627Z,7.50
2023-03-11T17:51:26.414Z,6.50
2023-03-11T17:53:56.723Z,7.10
2023-03-11T17:56:26.177Z,6.47
2023-03-11T17:58:56.206Z,5.57
2023-03-11T18:01:28.533Z,5.83
2023-03-11T18:03:58.858Z,5.87
2023-03-11T18:06:28.035Z,6.17
2023-03-11T18:08:56.917Z,6.07
2023-03-11T18:11:29.375Z,5.77
2023-03-11T18:13:59.209Z,6.30
2023-03-11T18:16:31.976Z,5.93
2023-03-11T18:19:02.315Z,6.20
2023-03-11T18:21:32.790Z,6.13
2023-03-11T18:24:02.234Z,6.30
2023-03-11T18:26:46.903Z,6.50
2023-03-11T18:29:15.730Z,6.30
2023-03-11T18:31:44.785Z,6.17
2023-03-11T18:34:16.000Z,6.57
2023-03-11T18:36:44.769Z,6.20
2023-03-11T18:39:13.840Z,6.27
2023-03-11T18:41:43.701Z,6.17
2023-03-11T18:44:12.906Z,6.23
2023-03-11T18:46:45.618Z,6.30
2023-03-11T18:49:17.849Z,8.37
2023-03-11T18:51:46.637Z,8.23
2023-03-11T18:54:15.666Z,7.70
2023-03-11T18:56:44.909Z,7.50
2023-03-11T18:59:14.555Z,8.17
2023-03-11T19:01:43.384Z,8.13
2023-03-11T19:04:12.647Z,7.40
2023-03-11T19:06:42.854Z,7.57
2023-03-11T19:09:12.029Z,7.63
2023-03-11T19:11:40.820Z,7.57
2023-03-11T19:14:09.448Z,7.50
2023-03-11T19:16:38.209Z,6.80
2023-03-11T19:19:06.993Z,7.40
2023-03-11T19:21:35.818Z,7.30
2023-03-11T19:24:06.874Z,7.47
2023-03-11T19:26:44.834Z,8.10
2023-03-11T19:29:14.947Z,7.03
2023-03-11T19:31:45.414Z,7.97
2023-03-11T19:34:14.324Z,7.50
2023-03-11T19:36:43.056Z,6.77
2023-03-11T19:39:13.382Z,6.73
2023-03-11T19:41:42.067Z,6.70
2023-03-11T19:44:10.790Z,6.87
2023-03-11T19:46:39.703Z,7.33
2023-03-11T19:49:08.509Z,7.10
2023-03-11T19:51:49.081Z,6.87
2023-03-11T19:54:20.493Z,7.80
2023-03-11T19:56:49.848Z,7.10
2023-03-11T19:59:18.808Z,7.43
2023-03-11T20:01:47.805Z,7.63
2023-03-11T20:04:16.656Z,7.67
2023-03-11T20:06:45.879Z,7.47
2023-03-11T20:09:16.202Z,7.73
2023-03-11T20:12:05.727Z,7.40
2023-03-11T20:14:34.683Z,7.77
2023-03-11T20:17:03.665Z,7.50
2023-03-11T20:19:32.519Z,6.97
2023-03-11T20:22:01.748Z,7.30
2023-03-11T20:24:30.589Z,6.53
2023-03-11T20:27:00.837Z,6.77
2023-03-11T20:29:29.677Z,6.60
2023-03-11T20:32:08.357Z,6.57
2023-03-11T20:34:38.017Z,6.87
2023-03-11T20:37:06.961Z,7.27
2023-03-11T20:39:35.802Z,7.30
2023-03-11T20:42:06.544Z,7.00
2023-03-11T20:44:35.567Z,6.70
2023-03-11T20:47:04.468Z,6.20
2023-03-11T20:49:33.702Z,6.60
2023-03-11T20:52:03.041Z,6.57
2023-03-11T20:54:31.862Z,6.40
2023-03-11T20:57:00.749Z,6.33
2023-03-11T20:59:31.191Z,5.97
2023-03-11T21:02:00.076Z,6.00
2023-03-11T21:04:28.921Z,6.40
2023-03-11T21:06:57.884Z,6.47
2023-03-11T21:09:26.692Z,6.60
2023-03-11T21:11:55.723Z,7.07
2023-03-11T21:14:24.705Z,7.63
2023-03-11T21:16:55.066Z,7.67
2023-03-11T21:19:24.032Z,6.73
2023-03-11T21:21:53.089Z,6.80
2023-03-11T21:24:21.890Z,7.00
2023-03-11T21:26:50.793Z,7.20
2023-03-11T21:29:19.827Z,9.37
2023-03-11T21:31:48.721Z,16.90
2023-03-11T21:34:18.990Z,8.33
2023-03-11T21:36:47.858Z,6.97
2023-03-11T21:39:16.837Z,7.07
2023-03-11T21:41:45.609Z,7.13
2023-03-11T21:44:14.576Z,6.90
2023-03-11T21:46:44.603Z,11.93
2023-03-11T21:49:13.443Z,9.83
2023-03-11T21:51:43.832Z,9.40
2023-03-11T21:54:12.772Z,9.27
2023-03-11T21:56:41.691Z,10.53
2023-03-11T21:59:10.936Z,10.00
2023-03-11T22:01:39.865Z,8.87
2023-03-11T22:04:08.765Z,13.87
2023-03-11T22:06:37.693Z,14.10
2023-03-11T22:09:08.294Z,13.03
2023-03-11T22:11:37.191Z,10.03
2023-03-11T22:14:05.925Z,7.73
2023-03-11T22:16:35.837Z,7.10
2023-03-11T22:19:08.919Z,7.40
2023-03-11T22:21:37.792Z,9.03
2023-03-11T22:24:08.567Z,7.53
2023-03-11T22:26:37.486Z,7.17
2023-03-11T22:29:08.932Z,7.70
2023-03-11T22:31:37.896Z,6.97
2023-03-11T22:34:06.545Z,7.23
2023-03-11T22:36:35.244Z,6.73
2023-03-11T22:39:04.458Z,7.60
2023-03-11T22:41:35.050Z,7.07
2023-03-11T22:44:03.745Z,7.37
2023-03-11T22:46:32.516Z,6.90
2023-03-11T22:49:01.164Z,6.60
2023-03-11T22:51:29.979Z,6.10
2023-03-11T22:53:58.716Z,6.03
2023-03-11T22:56:27.465Z,5.67
2023-03-11T22:58:57.670Z,6.17
2023-03-11T23:01:26.650Z,5.83
2023-03-11T23:03:55.496Z,5.53
2023-03-11T23:06:24.592Z,6.07
2023-03-11T23:08:53.582Z,5.90
2023-03-11T23:11:24.056Z,5.60
2023-03-11T23:13:52.817Z,5.63
2023-03-11T23:16:26.091Z,5.13
2023-03-11T23:18:57.078Z,5.80
2023-03-11T23:21:29.640Z,5.67
2023-03-11T23:24:00.042Z,5.43
2023-03-11T23:26:29.984Z,5.03
2023-03-11T23:29:01.083Z,5.33
2023-03-11T23:31:32.140Z,4.77
2023-03-11T23:34:00.972Z,4.93
2023-03-11T23:36:32.374Z,5.23
2023-03-11T23:39:01.069Z,5.07
2023-03-11T23:41:30.404Z,4.50
2023-03-11T23:43:59.112Z,4.90
2023-03-11T23:46:27.936Z,4.47
2023-03-11T23:48:58.131Z,4.50
2023-03-11T23:51:26.860Z,4.20
2023-03-11T23:53:55.988Z,4.50
2023-03-11T23:56:24.813Z,4.20
2023-03-11T23:58:53.556Z,3.67
